createdAt,value
2024-03-10T00:00:09.594Z,58.27
2024-03-10T00:03:17.042Z,58.37
2024-03-10T00:06:04.608Z,58.62
2024-03-10T00:08:51.803Z,58.54
2024-03-10T00:11:38.895Z,58.83
2024-03-10T00:14:25.970Z,58.88
2024-03-10T00:17:12.977Z,58.82
2024-03-10T00:19:59.864Z,59.03
2024-03-10T00:22:49.077Z,59.02
2024-03-10T00:25:39.027Z,59.24
2024-03-10T00:28:26.259Z,59.18
2024-03-10T00:31:13.520Z,59.38
2024-03-10T00:34:00.228Z,59.42
2024-03-10T00:36:46.936Z,59.45
2024-03-10T00:39:33.965Z,59.69
2024-03-10T00:42:22.314Z,59.60
2024-03-10T00:45:10.819Z,59.78
2024-03-10T00:47:57.904Z,60.04
2024-03-10T00:50:44.853Z,59.84
2024-03-10T00:53:32.141Z,59.89
2024-03-10T00:56:20.961Z,59.71
2024-03-10T00:59:08.155Z,60.29
2024-03-10T01:01:54.917Z,59.85
2024-03-10T01:04:42.285Z,59.69
2024-03-10T01:07:30.284Z,60.02
2024-03-10T01:10:17.736Z,59.83
2024-03-10T01:13:05.025Z,59.96
2024-03-10T01:15:53.423Z,60.51
2024-03-10T01:18:39.912Z,59.98
2024-03-10T01:21:26.790Z,59.98
2024-03-10T01:24:14.489Z,60.20
2024-03-10T01:27:01.376Z,60.23
2024-03-10T01:29:48.146Z,60.37
2024-03-10T01:32:38.251Z,60.32
2024-03-10T01:35:25.944Z,60.73
2024-03-10T01:38:12.899Z,60.72
2024-03-10T01:41:00.161Z,60.92
2024-03-10T01:43:49.183Z,60.70
2024-03-10T01:46:37.711Z,60.85
2024-03-10T01:49:24.688Z,60.86
2024-03-10T01:52:12.177Z,60.89
2024-03-10T01:54:59.385Z,61.20
2024-03-10T01:57:49.240Z,60.91
2024-03-10T02:00:39.742Z,60.87
2024-03-10T02:03:27.532Z,61.23
2024-03-10T02:06:14.552Z,61.28
2024-03-10T02:09:01.399Z,61.29
2024-03-10T02:11:48.554Z,61.39
2024-03-10T02:14:35.581Z,61.68
2024-03-10T02:17:22.639Z,61.18
2024-03-10T02:20:21.268Z,61.24
2024-03-10T02:23:08.926Z,61.23
2024-03-10T02:25:59.660Z,61.25
2024-03-10T02:29:16.271Z,61.02
2024-03-10T02:32:22.448Z,61.06
2024-03-10T02:35:28.149Z,61.18
2024-03-10T02:38:33.752Z,60.98
2024-03-10T02:41:39.376Z,61.23
2024-03-10T02:44:44.654Z,61.55
2024-03-10T02:47:31.718Z,61.78
2024-03-10T02:50:18.921Z,61.55
2024-03-10T02:53:06.411Z,61.40
2024-03-10T02:55:53.222Z,61.80
2024-03-10T02:58:40.531Z,62.05
2024-03-10T03:01:28.097Z,61.96
2024-03-10T03:04:15.135Z,61.98
2024-03-10T03:07:02.805Z,61.83
2024-03-10T03:09:49.746Z,62.15
2024-03-10T03:12:37.214Z,62.09
2024-03-10T03:15:24.776Z,61.87
2024-03-10T03:18:11.290Z,62.31
2024-03-10T03:20:58.946Z,62.46
2024-03-10T03:23:46.131Z,62.35
2024-03-10T03:26:32.781Z,62.41
2024-03-10T03:29:21.327Z,62.41
2024-03-10T03:32:08.036Z,62.59
2024-03-10T03:34:55.405Z,62.57
2024-03-10T03:37:42.565Z,62.67
2024-03-10T03:40:29.389Z,62.82
2024-03-10T03:43:16.347Z,62.75
2024-03-10T03:46:06.054Z,63.06
2024-03-10T03:48:52.918Z,62.90
2024-03-10T03:51:40.418Z,62.86
2024-03-10T03:54:27.225Z,62.91
2024-03-10T03:57:14.183Z,62.65
2024-03-10T04:00:02.138Z,62.89
2024-03-10T04:02:54.477Z,62.80
2024-03-10T04:05:44.015Z,62.23
2024-03-10T04:08:30.978Z,62.32
2024-03-10T04:11:18.262Z,62.37
2024-03-10T04:14:07.456Z,62.21
2024-03-10T04:16:55.137Z,62.80
2024-03-10T04:19:42.012Z,62.92
2024-03-10T04:22:29.334Z,62.89
2024-03-10T04:25:16.013Z,63.09
2024-03-10T04:28:02.896Z,62.98
2024-03-10T04:30:50.153Z,62.67
2024-03-10T04:33:37.553Z,62.99
2024-03-10T04:36:25.229Z,63.16
2024-03-10T04:39:12.013Z,62.85
2024-03-10T04:41:58.898Z,63.01
2024-03-10T04:44:46.388Z,62.90
2024-03-10T04:47:32.952Z,63.12
2024-03-10T04:50:20.198Z,63.06
2024-03-10T04:53:07.359Z,63.07
2024-03-10T04:55:54.661Z,62.82
2024-03-10T04:58:42.773Z,63.07
2024-03-10T05:01:29.607Z,63.30
2024-03-10T05:04:16.712Z,63.43
2024-03-10T05:07:05.811Z,63.07
2024-03-10T05:09:52.816Z,62.86
2024-03-10T05:12:40.361Z,63.36
2024-03-10T05:15:27.742Z,63.14
2024-03-10T05:18:14.561Z,63.47
2024-03-10T05:21:01.411Z,62.95
2024-03-10T05:23:48.403Z,63.23
2024-03-10T05:26:35.241Z,63.43
2024-03-10T05:29:22.532Z,62.99
2024-03-10T05:32:10.007Z,62.93
2024-03-10T05:34:58.307Z,62.86
2024-03-10T05:37:45.562Z,62.79
2024-03-10T05:40:33.876Z,62.95
2024-03-10T05:43:21.342Z,62.76
2024-03-10T05:46:09.304Z,62.56
2024-03-10T05:48:57.384Z,62.75
2024-03-10T05:51:44.597Z,62.94
2024-03-10T05:54:31.705Z,62.81
2024-03-10T05:57:18.558Z,62.53
2024-03-10T06:00:07.720Z,62.75
2024-03-10T06:03:01.054Z,63.03
2024-03-10T06:05:48.881Z,62.61
2024-03-10T06:08:36.578Z,62.32
2024-03-10T06:11:24.801Z,62.53
2024-03-10T06:14:13.351Z,62.41
2024-03-10T06:17:02.017Z,62.25
2024-03-10T06:20:07.585Z,62.33
2024-03-10T06:23:13.265Z,62.20
2024-03-10T06:26:01.078Z,62.28
2024-03-10T06:28:51.189Z,61.97
2024-03-10T06:31:38.678Z,61.92
2024-03-10T06:34:26.229Z,61.28
2024-03-10T06:37:14.054Z,60.84
2024-03-10T06:40:02.174Z,60.33
2024-03-10T06:42:49.135Z,60.06
2024-03-10T06:45:35.677Z,60.07
2024-03-10T06:48:22.602Z,59.73
2024-03-10T06:51:09.495Z,59.62
2024-03-10T06:53:56.371Z,59.57
2024-03-10T06:56:43.312Z,59.54
2024-03-10T06:59:31.109Z,59.04
2024-03-10T07:02:23.466Z,58.74
2024-03-10T07:05:10.379Z,58.65
2024-03-10T07:07:57.950Z,58.88
2024-03-10T07:10:44.725Z,59.10
2024-03-10T07:13:31.423Z,58.60
2024-03-10T07:16:18.616Z,58.47
2024-03-10T07:19:05.368Z,58.10
2024-03-10T07:21:52.662Z,58.00
2024-03-10T07:24:39.390Z,57.98
2024-03-10T07:27:26.457Z,57.24
2024-03-10T07:30:14.106Z,57.28
2024-03-10T07:33:00.909Z,57.17
2024-03-10T07:35:47.504Z,57.01
2024-03-10T07:38:34.144Z,56.45
2024-03-10T07:41:21.100Z,56.03
2024-03-10T07:44:08.065Z,55.25
2024-03-10T07:46:55.142Z,54.70
2024-03-10T07:49:42.115Z,54.06
2024-03-10T07:52:29.090Z,54.03
2024-03-10T07:55:17.954Z,54.16
2024-03-10T07:58:09.337Z,53.44
2024-03-10T08:00:56.173Z,52.70
2024-03-10T08:03:42.955Z,52.13
2024-03-10T08:06:29.968Z,52.01
2024-03-10T08:09:16.929Z,51.06
2024-03-10T08:12:05.780Z,50.92
2024-03-10T08:14:54.511Z,51.15
2024-03-10T08:17:43.010Z,50.76
2024-03-10T08:20:30.746Z,51.33
2024-03-10T08:23:18.661Z,50.62
2024-03-10T08:26:05.842Z,50.24
2024-03-10T08:28:52.619Z,50.20
2024-03-10T08:31:39.737Z,49.42
2024-03-10T08:34:28.154Z,49.68
2024-03-10T08:37:18.335Z,49.28
2024-03-10T08:40:15.736Z,50.01
2024-03-10T08:43:05.387Z,49.86
2024-03-10T08:45:52.828Z,49.95
2024-03-10T08:48:40.008Z,49.63
2024-03-10T08:51:29.213Z,49.36
2024-03-10T08:54:16.707Z,48.71
2024-03-10T08:57:05.687Z,48.71
2024-03-10T08:59:54.615Z,48.56
2024-03-10T09:02:42.206Z,48.32
2024-03-10T09:05:30.734Z,48.14
2024-03-10T09:08:17.847Z,48.20
2024-03-10T09:11:08.124Z,48.38
2024-03-10T09:13:56.389Z,48.06
2024-03-10T09:16:44.693Z,47.81
2024-03-10T09:19:31.914Z,47.74
2024-03-10T09:22:18.904Z,47.15
2024-03-10T09:25:08.434Z,46.95
2024-03-10T09:27:55.510Z,47.74
2024-03-10T09:30:43.076Z,47.81
2024-03-10T09:33:30.971Z,46.82
2024-03-10T09:36:18.815Z,46.78
2024-03-10T09:39:05.636Z,47.15
2024-03-10T09:41:55.215Z,47.42
2024-03-10T09:44:46.511Z,46.89
2024-03-10T09:47:34.919Z,47.42
2024-03-10T09:50:25.624Z,47.51
2024-03-10T09:53:13.519Z,47.56
2024-03-10T09:56:00.364Z,47.54
2024-03-10T09:58:51.656Z,47.48
2024-03-10T10:01:38.883Z,47.40
2024-03-10T10:04:27.174Z,47.40
2024-03-10T10:07:14.611Z,46.59
2024-03-10T10:10:02.050Z,46.19
2024-03-10T10:12:50.621Z,46.46
2024-03-10T10:15:37.567Z,46.83
2024-03-10T10:18:27.266Z,46.76
2024-03-10T10:21:16.843Z,46.09
2024-03-10T10:24:05.430Z,46.38
2024-03-10T10:27:05.680Z,46.56
2024-03-10T10:29:54.558Z,46.61
2024-03-10T10:32:43.098Z,46.52
2024-03-10T10:35:29.899Z,46.34
2024-03-10T10:38:16.591Z,46.66
2024-03-10T10:41:03.607Z,46.59
2024-03-10T10:43:51.303Z,46.23
2024-03-10T10:46:39.895Z,46.29
2024-03-10T10:49:27.308Z,46.32
2024-03-10T10:52:14.594Z,46.23
2024-03-10T10:55:07.827Z,45.80
2024-03-10T10:58:05.430Z,46.17
2024-03-10T11:00:55.459Z,46.55
2024-03-10T11:03:42.555Z,46.37
2024-03-10T11:06:32.825Z,46.44
2024-03-10T11:09:32.281Z,46.13
2024-03-10T11:12:22.617Z,45.97
2024-03-10T11:15:10.963Z,46.70
2024-03-10T11:17:58.102Z,45.76
2024-03-10T11:20:45.695Z,44.89
2024-03-10T11:23:52.907Z,45.34
2024-03-10T11:26:40.268Z,45.39
2024-03-10T11:29:28.538Z,45.86
2024-03-10T11:32:35.480Z,46.22
2024-03-10T11:35:23.918Z,46.30
2024-03-10T11:38:12.687Z,45.82
2024-03-10T11:41:01.842Z,46.05
2024-03-10T11:43:50.442Z,46.37
2024-03-10T11:46:37.297Z,46.62
2024-03-10T11:49:24.564Z,46.61
2024-03-10T11:52:13.462Z,46.36
2024-03-10T11:55:00.902Z,46.38
2024-03-10T11:57:57.065Z,46.57
2024-03-10T12:00:44.294Z,46.49
2024-03-10T12:03:36.258Z,46.89
2024-03-10T12:06:27.749Z,46.49
2024-03-10T12:09:24.054Z,46.43
2024-03-10T12:12:23.292Z,46.64
2024-03-10T12:15:25.855Z,46.49
2024-03-10T12:18:14.057Z,46.73
2024-03-10T12:21:01.819Z,46.59
2024-03-10T12:23:48.814Z,46.50
2024-03-10T12:26:38.420Z,46.61
2024-03-10T12:29:31.903Z,46.37
2024-03-10T12:32:24.531Z,46.65
2024-03-10T12:35:11.778Z,46.66
2024-03-10T12:38:03.621Z,46.70
2024-03-10T12:40:50.815Z,46.59
2024-03-10T12:43:45.751Z,46.46
2024-03-10T12:46:41.934Z,46.67
2024-03-10T12:49:28.812Z,46.29
2024-03-10T12:52:32.006Z,45.70
2024-03-10T12:55:22.553Z,45.70
2024-03-10T12:58:09.533Z,46.02
2024-03-10T13:00:56.770Z,46.32
2024-03-10T13:03:45.250Z,46.63
2024-03-10T13:06:32.732Z,46.28
2024-03-10T13:09:19.573Z,46.36
2024-03-10T13:12:07.841Z,46.09
2024-03-10T13:14:55.083Z,46.61
2024-03-10T13:17:43.395Z,46.28
2024-03-10T13:20:30.379Z,46.50
2024-03-10T13:23:17.643Z,46.31
2024-03-10T13:26:05.115Z,46.17
2024-03-10T13:28:52.364Z,46.36
2024-03-10T13:31:39.138Z,46.45
2024-03-10T13:34:26.471Z,46.57
2024-03-10T13:37:13.488Z,46.69
2024-03-10T13:40:12.926Z,46.92
2024-03-10T13:42:59.936Z,47.13
2024-03-10T13:45:46.602Z,47.24
2024-03-10T13:48:35.134Z,47.37
2024-03-10T13:51:28.624Z,47.48
2024-03-10T13:54:15.947Z,47.74
2024-03-10T13:57:02.694Z,48.03
2024-03-10T13:59:50.569Z,48.13
2024-03-10T14:02:37.265Z,48.30
2024-03-10T14:05:24.294Z,48.55
2024-03-10T14:08:11.204Z,48.32
2024-03-10T14:10:57.924Z,48.59
2024-03-10T14:13:46.361Z,48.67
2024-03-10T14:16:35.484Z,48.66
2024-03-10T14:19:22.052Z,48.92
2024-03-10T14:22:09.620Z,49.03
2024-03-10T14:24:56.764Z,49.36
2024-03-10T14:27:55.568Z,49.53
2024-03-10T14:30:43.093Z,49.61
2024-03-10T14:33:39.713Z,49.63
2024-03-10T14:36:26.623Z,49.78
2024-03-10T14:39:14.448Z,49.97
2024-03-10T14:42:01.575Z,50.04
2024-03-10T14:44:49.424Z,49.99
2024-03-10T14:47:40.724Z,49.96
2024-03-10T14:50:35.313Z,50.17
2024-03-10T14:53:22.866Z,50.15
2024-03-10T14:56:09.847Z,50.33
2024-03-10T14:58:58.409Z,50.49
2024-03-10T15:01:46.326Z,50.27
2024-03-10T15:04:32.999Z,50.30
2024-03-10T15:07:23.946Z,50.50
2024-03-10T15:10:15.547Z,50.53
2024-03-10T15:13:03.721Z,50.68
2024-03-10T15:15:52.044Z,50.78
2024-03-10T15:18:39.445Z,50.76
2024-03-10T15:21:27.782Z,50.78
2024-03-10T15:24:16.429Z,50.86
2024-03-10T15:27:08.076Z,50.91
2024-03-10T15:29:55.881Z,50.86
2024-03-10T15:32:43.106Z,51.26
2024-03-10T15:35:29.875Z,51.30
2024-03-10T15:38:16.799Z,51.35
2024-03-10T15:41:05.822Z,51.59
2024-03-10T15:43:52.814Z,51.63
2024-03-10T15:46:39.521Z,51.78
2024-03-10T15:49:26.427Z,51.93
2024-03-10T15:52:13.491Z,52.08
2024-03-10T15:55:00.665Z,52.31
2024-03-10T15:57:50.908Z,52.50
2024-03-10T16:00:38.853Z,52.74
2024-03-10T16:03:33.495Z,52.72
2024-03-10T16:06:23.756Z,52.72
2024-03-10T16:09:12.475Z,52.63
2024-03-10T16:12:00.402Z,52.63
2024-03-10T16:14:48.381Z,52.76
2024-03-10T16:17:35.628Z,52.72
2024-03-10T16:20:23.367Z,53.07
2024-03-10T16:23:10.540Z,52.85
2024-03-10T16:25:57.995Z,52.96
2024-03-10T16:28:45.868Z,53.29
2024-03-10T16:31:32.600Z,54.12
2024-03-10T16:34:23.157Z,54.57
2024-03-10T16:37:26.109Z,54.86
2024-03-10T16:40:17.001Z,55.42
2024-03-10T16:43:04.977Z,55.72
2024-03-10T16:45:52.168Z,55.79
2024-03-10T16:48:40.742Z,56.06
2024-03-10T16:51:32.198Z,56.10
2024-03-10T16:54:21.560Z,56.23
2024-03-10T16:57:08.442Z,56.55
2024-03-10T16:59:55.652Z,56.59
2024-03-10T17:02:46.156Z,56.55
2024-03-10T17:05:37.889Z,56.65
2024-03-10T17:08:25.152Z,56.70
2024-03-10T17:11:12.858Z,56.97
2024-03-10T17:14:00.008Z,57.12
2024-03-10T17:16:47.722Z,57.33
2024-03-10T17:19:38.196Z,57.52
2024-03-10T17:22:26.478Z,57.53
2024-03-10T17:25:16.925Z,57.88
2024-03-10T17:28:05.776Z,57.97
2024-03-10T17:30:55.851Z,58.11
2024-03-10T17:33:43.869Z,58.44
2024-03-10T17:36:35.162Z,58.43
2024-03-10T17:39:23.936Z,58.81
2024-03-10T17:42:13.634Z,58.97
2024-03-10T17:45:02.158Z,59.18
2024-03-10T17:47:49.646Z,59.56
2024-03-10T17:50:41.411Z,59.75
2024-03-10T17:53:28.906Z,60.08
2024-03-10T17:56:18.830Z,60.37
2024-03-10T17:59:08.955Z,60.50
2024-03-10T18:01:57.649Z,60.72
2024-03-10T18:04:44.667Z,60.91
2024-03-10T18:07:35.122Z,60.97
2024-03-10T18:10:22.771Z,61.08
2024-03-10T18:13:10.994Z,61.22
2024-03-10T18:16:00.092Z,61.36
2024-03-10T18:18:48.667Z,61.63
2024-03-10T18:21:35.429Z,61.68
2024-03-10T18:24:22.466Z,61.63
2024-03-10T18:27:11.312Z,62.02
2024-03-10T18:29:58.393Z,61.90
2024-03-10T18:32:45.486Z,62.18
2024-03-10T18:35:35.240Z,62.61
2024-03-10T18:38:22.085Z,62.74
2024-03-10T18:41:08.999Z,62.56
2024-03-10T18:43:57.810Z,62.50
2024-03-10T18:46:44.723Z,62.59
2024-03-10T18:49:32.922Z,62.95
2024-03-10T18:52:21.907Z,62.85
2024-03-10T18:55:14.752Z,62.79
2024-03-10T18:58:02.086Z,63.15
2024-03-10T19:00:53.317Z,63.48
2024-03-10T19:03:46.212Z,63.38
2024-03-10T19:06:34.905Z,63.86
2024-03-10T19:09:32.127Z,64.01
2024-03-10T19:12:29.464Z,64.32
2024-03-10T19:15:17.419Z,64.65
2024-03-10T19:18:05.570Z,64.99
2024-03-10T19:20:54.130Z,64.83
2024-03-10T19:23:43.373Z,65.17
2024-03-10T19:26:39.012Z,65.46
2024-03-10T19:29:30.813Z,66.05
2024-03-10T19:32:21.149Z,66.10
2024-03-10T19:35:15.225Z,66.19
2024-03-10T19:38:09.884Z,66.94
2024-03-10T19:41:00.657Z,67.39
2024-03-10T19:43:52.674Z,67.44
2024-03-10T19:46:53.472Z,68.01
2024-03-10T19:49:42.410Z,68.47
2024-03-10T19:52:38.593Z,68.64
2024-03-10T19:55:29.833Z,68.53
2024-03-10T19:58:19.722Z,68.82
2024-03-10T20:01:14.736Z,69.18
2024-03-10T20:04:05.910Z,69.17
2024-03-10T20:07:00.495Z,69.33
2024-03-10T20:09:50.965Z,70.02
2024-03-10T20:12:41.866Z,70.02
2024-03-10T20:15:29.956Z,70.26
2024-03-10T20:18:21.292Z,70.63
2024-03-10T20:21:09.085Z,70.86
2024-03-10T20:23:57.749Z,70.63
2024-03-10T20:26:49.559Z,70.53
2024-03-10T20:29:38.723Z,71.01
2024-03-10T20:32:29.487Z,71.46
2024-03-10T20:35:18.802Z,71.33
2024-03-10T20:38:09.571Z,71.47
2024-03-10T20:40:59.487Z,71.72
2024-03-10T20:43:51.911Z,71.72
2024-03-10T20:46:41.327Z,71.77
2024-03-10T20:49:31.681Z,72.06
2024-03-10T20:52:24.334Z,72.08
2024-03-10T20:55:12.379Z,72.56
2024-03-10T20:58:01.188Z,72.54
2024-03-10T21:00:51.081Z,72.85
2024-03-10T21:03:40.335Z,73.01
2024-03-10T21:06:27.805Z,73.22
2024-03-10T21:09:22.688Z,73.06
2024-03-10T21:12:11.315Z,73.31
2024-03-10T21:15:05.040Z,73.26
2024-03-10T21:18:17.058Z,73.51
2024-03-10T21:21:25.505Z,73.06
2024-03-10T21:24:18.782Z,73.08
2024-03-10T21:27:14.722Z,73.26
2024-03-10T21:30:03.091Z,73.04
2024-03-10T21:32:59.617Z,73.32
2024-03-10T21:35:49.582Z,73.29
2024-03-10T21:38:51.085Z,73.40
2024-03-10T21:41:39.404Z,73.47
2024-03-10T21:44:27.643Z,73.58
2024-03-10T21:47:16.048Z,73.90
2024-03-10T21:50:19.820Z,73.97
2024-03-10T21:53:10.134Z,74.02
2024-03-10T21:56:07.192Z,74.11
2024-03-10T21:58:53.901Z,74.05
2024-03-10T22:01:40.856Z,74.20
2024-03-10T22:04:28.036Z,74.29
2024-03-10T22:07:15.124Z,74.25
2024-03-10T22:10:02.072Z,74.25
2024-03-10T22:12:49.148Z,73.98
2024-03-10T22:15:36.078Z,74.09
2024-03-10T22:18:23.137Z,74.56
2024-03-10T22:21:12.052Z,74.72
2024-03-10T22:23:58.740Z,74.71
2024-03-10T22:26:46.212Z,74.88
2024-03-10T22:29:33.306Z,74.93
2024-03-10T22:32:22.919Z,75.05
2024-03-10T22:35:10.328Z,75.11
2024-03-10T22:37:59.338Z,75.40
2024-03-10T22:40:48.686Z,75.52
2024-03-10T22:43:37.127Z,75.63
2024-03-10T22:46:24.262Z,75.67
2024-03-10T22:49:11.554Z,75.84
2024-03-10T22:51:58.639Z,76.04
2024-03-10T22:54:45.622Z,76.10
2024-03-10T22:57:32.735Z,76.13
2024-03-10T23:00:25.670Z,76.44
2024-03-10T23:03:16.703Z,76.43
2024-03-10T23:06:05.507Z,76.59
2024-03-10T23:08:53.422Z,76.62
2024-03-10T23:11:41.494Z,76.49
2024-03-10T23:14:28.730Z,76.71
2024-03-10T23:17:15.795Z,76.94
2024-03-10T23:20:08.412Z,76.95
2024-03-10T23:22:58.202Z,76.90
2024-03-10T23:25:46.144Z,77.06
2024-03-10T23:28:33.629Z,76.89
2024-03-10T23:31:20.145Z,76.88
2024-03-10T23:34:07.454Z,77.04
2024-03-10T23:36:53.988Z,77.19
2024-03-10T23:39:41.138Z,77.38
2024-03-10T23:42:28.188Z,77.58
2024-03-10T23:45:15.792Z,77.62
2024-03-10T23:48:02.970Z,77.72
2024-03-10T23:50:51.390Z,77.79
2024-03-10T23:53:41.291Z,77.88
2024-03-10T23:56:30.142Z,77.79
2024-03-10T23:59:17.639Z,77.74
